Terminal Aerodrome Forecast
Issued by NWS

Home | Current Version | Previous Version | Text Only | Print | Product List | Glossary On
Versions: 1 2 3 4 5 6 7 8 9 10 11 12
772
FTUS42 TJSJ 080537
TAFIST
TAF
TIST 080537Z 0806/0906 06012KT P6SM VCSH SCT025 SCT040
     FM081300 07015KT P6SM FEW030 SCT050
     FM082300 06010KT P6SM SCT025=

USA.gov is the U.S. government's official web portal to all federal, state and local government web resources and services.